createdAt,value
2017-11-26T00:00:55.149Z,76.23
2017-11-26T00:02:02.020Z,76.24
2017-11-26T00:03:08.979Z,76.27
2017-11-26T00:04:15.801Z,76.31
2017-11-26T00:05:22.707Z,76.34
2017-11-26T00:06:29.898Z,76.39
2017-11-26T00:07:36.673Z,76.40
2017-11-26T00:08:43.673Z,76.43
2017-11-26T00:09:50.447Z,76.46
2017-11-26T00:10:57.414Z,76.49
2017-11-26T00:12:04.297Z,76.54
2017-11-26T00:13:11.180Z,76.55
2017-11-26T00:14:18.041Z,76.57
2017-11-26T00:15:24.869Z,76.59
2017-11-26T00:16:31.801Z,76.61
2017-11-26T00:17:38.741Z,76.68
2017-11-26T00:18:45.753Z,76.74
2017-11-26T00:19:52.802Z,76.75
2017-11-26T00:20:59.993Z,76.75
2017-11-26T00:22:06.553Z,76.78
2017-11-26T00:23:13.423Z,76.80
2017-11-26T00:24:20.161Z,76.81
2017-11-26T00:25:26.963Z,76.79
2017-11-26T00:26:33.913Z,76.80
2017-11-26T00:27:40.725Z,76.83
2017-11-26T00:28:47.577Z,76.85
2017-11-26T00:29:54.512Z,76.90
2017-11-26T00:31:01.693Z,76.87
2017-11-26T00:32:08.562Z,76.86
2017-11-26T00:33:15.674Z,76.93
2017-11-26T00:34:22.539Z,76.91
2017-11-26T00:35:29.454Z,76.90
2017-11-26T00:36:36.490Z,76.93
2017-11-26T00:37:43.178Z,76.98
2017-11-26T00:38:49.934Z,76.98
2017-11-26T00:39:56.867Z,77.02
2017-11-26T00:41:03.786Z,77.03
2017-11-26T00:42:10.638Z,77.03
2017-11-26T00:43:17.694Z,77.06
2017-11-26T00:44:24.858Z,77.10
2017-11-26T00:45:31.665Z,77.10
2017-11-26T00:46:38.517Z,77.12
2017-11-26T00:47:45.566Z,77.15
2017-11-26T00:48:52.444Z,77.17
2017-11-26T00:49:59.258Z,77.25
2017-11-26T00:51:06.183Z,77.28
2017-11-26T00:52:13.033Z,77.31
2017-11-26T00:53:19.831Z,77.30
2017-11-26T00:54:26.776Z,77.38
2017-11-26T00:55:33.590Z,77.39
2017-11-26T00:56:40.346Z,77.41
2017-11-26T00:57:47.429Z,77.45
2017-11-26T00:58:54.375Z,77.47
2017-11-26T01:00:01.448Z,77.46
2017-11-26T01:01:08.442Z,77.48
2017-11-26T01:02:15.330Z,77.51
2017-11-26T01:03:22.293Z,77.49
2017-11-26T01:04:29.045Z,77.51
2017-11-26T01:05:35.825Z,77.56
2017-11-26T01:06:42.630Z,77.56
2017-11-26T01:07:49.418Z,77.55
2017-11-26T01:08:56.171Z,77.55
2017-11-26T01:10:03.070Z,77.54
2017-11-26T01:11:09.781Z,77.56
2017-11-26T01:12:16.578Z,77.58
2017-11-26T01:13:23.366Z,77.56
2017-11-26T01:14:30.282Z,77.55
2017-11-26T01:15:37.146Z,77.51
2017-11-26T01:16:44.013Z,77.56
2017-11-26T01:17:50.901Z,77.57
2017-11-26T01:18:57.583Z,77.58
2017-11-26T01:20:04.363Z,77.55
2017-11-26T01:21:11.254Z,77.55
2017-11-26T01:22:18.063Z,77.61
2017-11-26T01:23:25.019Z,77.62
2017-11-26T01:24:31.774Z,77.62
2017-11-26T01:25:38.605Z,77.61
2017-11-26T01:26:45.463Z,77.62
2017-11-26T01:27:52.342Z,77.60
2017-11-26T01:28:59.279Z,77.57
2017-11-26T01:30:06.070Z,77.59
2017-11-26T01:31:13.002Z,77.61
2017-11-26T01:32:19.927Z,77.62
2017-11-26T01:33:26.644Z,77.62
2017-11-26T01:34:33.540Z,77.61
2017-11-26T01:35:40.310Z,77.58
2017-11-26T01:36:47.222Z,77.61
2017-11-26T01:37:54.141Z,77.60
2017-11-26T01:39:00.858Z,77.59
2017-11-26T01:40:07.838Z,77.60
2017-11-26T01:41:14.703Z,77.56
2017-11-26T01:42:21.588Z,77.58
2017-11-26T01:43:28.414Z,77.54
2017-11-26T01:44:35.278Z,77.52
2017-11-26T01:45:42.363Z,77.55
2017-11-26T01:46:49.294Z,77.57
2017-11-26T01:47:56.190Z,77.53
2017-11-26T01:49:03.142Z,77.54
2017-11-26T01:50:09.877Z,77.51
2017-11-26T01:51:16.772Z,77.46
2017-11-26T01:52:23.799Z,77.38
2017-11-26T01:53:30.514Z,77.39
2017-11-26T01:54:37.317Z,77.42
2017-11-26T01:55:44.254Z,77.40
2017-11-26T01:56:51.043Z,77.39
2017-11-26T01:57:57.899Z,77.40
2017-11-26T01:59:04.682Z,77.43
2017-11-26T02:00:11.670Z,77.42
2017-11-26T02:01:18.502Z,77.41
2017-11-26T02:02:25.431Z,77.43
2017-11-26T02:03:32.357Z,77.48
2017-11-26T02:04:39.594Z,77.44
2017-11-26T02:05:46.308Z,77.46
2017-11-26T02:06:53.354Z,77.46
2017-11-26T02:08:00.170Z,77.47
2017-11-26T02:09:06.963Z,77.51
2017-11-26T02:10:13.971Z,77.54
2017-11-26T02:11:20.955Z,77.54
2017-11-26T02:12:27.910Z,77.49
2017-11-26T02:13:34.831Z,77.45
2017-11-26T02:14:41.594Z,77.43
2017-11-26T02:15:48.286Z,77.45
2017-11-26T02:16:55.197Z,77.44
2017-11-26T02:18:02.134Z,77.38
2017-11-26T02:19:09.113Z,77.41
2017-11-26T02:20:16.070Z,77.41
2017-11-26T02:21:23.015Z,77.42
2017-11-26T02:22:30.154Z,77.46
2017-11-26T02:23:37.015Z,77.38
2017-11-26T02:24:43.853Z,77.40
2017-11-26T02:25:50.603Z,77.36
2017-11-26T02:26:57.513Z,77.34
2017-11-26T02:28:04.466Z,77.35
2017-11-26T02:29:11.482Z,77.38
2017-11-26T02:30:18.450Z,77.35
2017-11-26T02:31:25.462Z,77.37
2017-11-26T02:32:32.530Z,77.35
2017-11-26T02:33:44.133Z,77.34
2017-11-26T02:34:51.131Z,77.35
2017-11-26T02:35:58.410Z,77.39
2017-11-26T02:37:05.417Z,77.41
2017-11-26T02:38:12.369Z,77.42
2017-11-26T02:39:19.199Z,77.43
2017-11-26T02:40:26.067Z,77.41
2017-11-26T02:41:32.922Z,77.38
2017-11-26T02:42:39.831Z,77.39
2017-11-26T02:43:46.770Z,77.41
2017-11-26T02:44:53.548Z,77.44
2017-11-26T02:46:00.450Z,77.45
2017-11-26T02:47:07.461Z,77.42
2017-11-26T02:48:14.581Z,77.40
2017-11-26T02:49:21.567Z,77.43
2017-11-26T02:50:28.501Z,77.46
2017-11-26T02:51:35.481Z,77.49
2017-11-26T02:52:42.494Z,77.44
2017-11-26T02:53:49.429Z,77.46
2017-11-26T02:54:56.402Z,77.44
2017-11-26T02:56:03.430Z,77.44
2017-11-26T02:57:10.387Z,77.49
2017-11-26T02:58:17.426Z,77.50
2017-11-26T02:59:24.238Z,77.49
2017-11-26T03:00:31.217Z,77.49
2017-11-26T03:01:37.932Z,77.51
2017-11-26T03:02:44.744Z,77.52
2017-11-26T03:03:51.555Z,77.54
2017-11-26T03:04:58.583Z,77.51
2017-11-26T03:06:05.455Z,77.49
2017-11-26T03:07:12.263Z,77.50
2017-11-26T03:08:18.990Z,77.50
2017-11-26T03:09:25.699Z,77.50
2017-11-26T03:10:32.662Z,77.50
2017-11-26T03:11:39.615Z,77.51
2017-11-26T03:12:46.296Z,77.56
2017-11-26T03:13:53.004Z,77.58
2017-11-26T03:14:59.821Z,77.56
2017-11-26T03:16:06.726Z,77.57
2017-11-26T03:17:13.592Z,77.60
2017-11-26T03:18:20.697Z,77.60
2017-11-26T03:19:27.460Z,77.67
2017-11-26T03:20:34.193Z,77.76
2017-11-26T03:21:40.990Z,77.77
2017-11-26T03:22:47.778Z,77.80
2017-11-26T03:23:54.635Z,77.78
2017-11-26T03:25:01.470Z,77.82
2017-11-26T03:26:08.161Z,77.78
2017-11-26T03:27:15.054Z,77.80
2017-11-26T03:28:21.946Z,77.82
2017-11-26T03:29:28.981Z,77.81
2017-11-26T03:30:36.139Z,77.76
2017-11-26T03:31:43.098Z,77.75
2017-11-26T03:32:49.938Z,77.77
2017-11-26T03:33:56.806Z,77.76
2017-11-26T03:35:03.662Z,77.79
2017-11-26T03:36:10.570Z,77.81
2017-11-26T03:37:17.326Z,77.82
2017-11-26T03:38:24.097Z,77.82
2017-11-26T03:39:30.970Z,77.80
2017-11-26T03:40:37.982Z,77.84
2017-11-26T03:41:44.816Z,77.84
2017-11-26T03:42:51.762Z,77.84
2017-11-26T03:43:58.565Z,77.88
2017-11-26T03:45:05.442Z,77.88
2017-11-26T03:46:12.314Z,77.90
2017-11-26T03:47:19.275Z,77.88
2017-11-26T03:48:26.197Z,77.83
2017-11-26T03:49:33.315Z,77.86
2017-11-26T03:50:40.194Z,77.86
2017-11-26T03:51:46.927Z,77.88
2017-11-26T03:52:53.703Z,77.87
2017-11-26T03:54:00.519Z,77.85
2017-11-26T03:55:07.455Z,77.83
2017-11-26T03:56:14.610Z,77.87
2017-11-26T03:57:21.578Z,77.89
2017-11-26T03:58:28.569Z,77.89
2017-11-26T03:59:35.478Z,77.92
2017-11-26T04:00:42.170Z,77.92
2017-11-26T04:01:49.025Z,77.99
2017-11-26T04:02:55.970Z,78.04
2017-11-26T04:04:02.778Z,78.05
2017-11-26T04:05:09.646Z,78.05
2017-11-26T04:06:16.534Z,78.09
2017-11-26T04:07:23.242Z,78.15
2017-11-26T04:08:30.214Z,78.22
2017-11-26T04:09:37.044Z,78.27
2017-11-26T04:10:43.932Z,78.30
2017-11-26T04:11:50.890Z,78.31
2017-11-26T04:12:57.898Z,78.32
2017-11-26T04:14:04.695Z,78.33
2017-11-26T04:15:11.714Z,78.38
2017-11-26T04:16:18.666Z,78.38
2017-11-26T04:17:25.590Z,78.40
2017-11-26T04:18:32.670Z,78.42
2017-11-26T04:19:39.650Z,78.40
2017-11-26T04:20:46.542Z,78.39
2017-11-26T04:21:53.554Z,78.40
2017-11-26T04:23:00.422Z,78.39
2017-11-26T04:24:07.369Z,78.41
2017-11-26T04:25:14.169Z,78.44
2017-11-26T04:26:21.154Z,78.47
2017-11-26T04:27:28.003Z,78.52
2017-11-26T04:28:34.869Z,78.53
2017-11-26T04:29:41.630Z,78.60
2017-11-26T04:30:48.672Z,78.64
2017-11-26T04:31:55.837Z,78.70
2017-11-26T04:33:02.762Z,78.70
2017-11-26T04:34:07.873Z,78.73
2017-11-26T04:35:14.646Z,78.73
2017-11-26T04:36:21.402Z,78.75
2017-11-26T04:37:28.503Z,78.76
2017-11-26T04:38:35.438Z,78.76
2017-11-26T04:39:42.294Z,78.79
2017-11-26T04:40:49.235Z,78.83
2017-11-26T04:41:56.242Z,78.85
2017-11-26T04:43:03.102Z,78.90
2017-11-26T04:44:09.921Z,78.94
2017-11-26T04:45:16.754Z,78.98
2017-11-26T04:46:23.686Z,78.97
2017-11-26T04:47:30.582Z,79.03
2017-11-26T04:48:37.546Z,79.08
2017-11-26T04:49:44.375Z,79.11
2017-11-26T04:50:51.250Z,79.14
2017-11-26T04:51:58.285Z,79.12
2017-11-26T04:53:05.162Z,79.14
2017-11-26T04:54:12.270Z,79.20
2017-11-26T04:55:19.366Z,79.21
2017-11-26T04:56:26.278Z,79.30
2017-11-26T04:57:32.960Z,79.31
2017-11-26T04:58:39.862Z,79.38
2017-11-26T04:59:46.710Z,79.40
2017-11-26T05:00:53.713Z,79.34
2017-11-26T05:02:00.430Z,79.36
2017-11-26T05:03:07.467Z,79.36
2017-11-26T05:04:14.515Z,79.43
2017-11-26T05:05:21.479Z,79.46
2017-11-26T05:06:28.534Z,79.46
2017-11-26T05:07:35.376Z,79.51
2017-11-26T05:08:42.326Z,79.56
2017-11-26T05:09:49.281Z,79.63
2017-11-26T05:10:56.226Z,79.64
2017-11-26T05:12:02.985Z,79.70
2017-11-26T05:13:09.838Z,79.75
2017-11-26T05:14:16.689Z,79.82
2017-11-26T05:15:23.470Z,79.87
2017-11-26T05:16:30.353Z,79.91
2017-11-26T05:17:37.161Z,79.96
2017-11-26T05:18:43.912Z,80.06
2017-11-26T05:19:50.822Z,80.13
2017-11-26T05:20:57.623Z,80.15
2017-11-26T05:22:04.485Z,80.17
2017-11-26T05:23:11.334Z,80.25
2017-11-26T05:24:18.173Z,80.31
2017-11-26T05:25:25.019Z,80.38
2017-11-26T05:26:32.206Z,80.44
2017-11-26T05:27:38.527Z,80.49
2017-11-26T05:28:45.362Z,80.52
2017-11-26T05:29:52.229Z,80.57
2017-11-26T05:30:59.115Z,80.62
2017-11-26T05:32:05.928Z,80.61
2017-11-26T05:33:12.707Z,80.65
2017-11-26T05:34:19.529Z,80.69
2017-11-26T05:35:26.391Z,80.70
2017-11-26T05:36:33.389Z,80.76
2017-11-26T05:37:40.317Z,80.80
2017-11-26T05:38:47.314Z,80.82
2017-11-26T05:39:54.106Z,80.83
2017-11-26T05:41:01.078Z,80.84
2017-11-26T05:42:07.963Z,80.85
2017-11-26T05:43:14.967Z,80.90
2017-11-26T05:44:21.770Z,80.90
2017-11-26T05:45:28.460Z,80.94
2017-11-26T05:46:35.317Z,80.96
2017-11-26T05:47:42.068Z,80.99
2017-11-26T05:48:49.003Z,81.02
2017-11-26T05:49:55.804Z,81.03
2017-11-26T05:51:02.845Z,81.05
2017-11-26T05:52:09.830Z,81.06
2017-11-26T05:53:16.543Z,81.10
2017-11-26T05:54:23.466Z,81.11
2017-11-26T05:55:30.301Z,81.13
2017-11-26T05:56:37.038Z,81.16
2017-11-26T05:57:43.965Z,81.16
2017-11-26T05:58:50.773Z,81.22
2017-11-26T05:59:57.582Z,81.22
2017-11-26T06:01:04.270Z,81.22
2017-11-26T06:02:11.111Z,81.24
2017-11-26T06:03:18.062Z,81.27
2017-11-26T06:04:24.997Z,81.32
2017-11-26T06:05:31.796Z,81.33
2017-11-26T06:06:38.790Z,81.36
2017-11-26T06:07:45.703Z,81.41
2017-11-26T06:08:52.550Z,81.45
2017-11-26T06:09:59.581Z,81.50
2017-11-26T06:11:06.489Z,81.52
2017-11-26T06:12:13.317Z,81.53
2017-11-26T06:13:20.258Z,81.51
2017-11-26T06:14:26.936Z,81.55
2017-11-26T06:15:33.714Z,81.56
2017-11-26T06:16:40.559Z,81.61
2017-11-26T06:17:47.536Z,81.62
2017-11-26T06:18:54.414Z,81.68
2017-11-26T06:20:01.323Z,81.73
2017-11-26T06:21:08.481Z,81.74
2017-11-26T06:22:15.345Z,81.78
2017-11-26T06:23:22.206Z,81.83
2017-11-26T06:24:28.963Z,81.82
2017-11-26T06:25:36.202Z,81.85
2017-11-26T06:26:42.446Z,81.87
2017-11-26T06:27:49.539Z,81.95
2017-11-26T06:28:56.366Z,82.00
2017-11-26T06:30:03.418Z,82.00
2017-11-26T06:31:10.470Z,82.02
2017-11-26T06:32:17.199Z,82.03
2017-11-26T06:33:24.247Z,82.03
2017-11-26T06:34:31.266Z,82.04
2017-11-26T06:35:38.170Z,82.07
2017-11-26T06:36:45.190Z,82.11
2017-11-26T06:37:52.122Z,82.15
2017-11-26T06:38:59.146Z,82.19
2017-11-26T06:40:06.249Z,82.24
2017-11-26T06:41:13.252Z,82.25
2017-11-26T06:42:20.366Z,82.25
2017-11-26T06:43:27.006Z,82.27
2017-11-26T06:44:33.939Z,82.27
2017-11-26T06:45:40.905Z,82.27
2017-11-26T06:46:47.713Z,82.30
2017-11-26T06:47:54.675Z,82.35
2017-11-26T06:49:01.501Z,82.37
2017-11-26T06:50:08.350Z,82.37
2017-11-26T06:51:15.430Z,82.43
2017-11-26T06:52:22.372Z,82.44
2017-11-26T06:53:32.951Z,82.44
2017-11-26T06:54:36.360Z,82.41
2017-11-26T06:55:43.232Z,82.41
2017-11-26T06:56:50.293Z,82.41
2017-11-26T06:57:57.398Z,82.44
2017-11-26T06:59:04.190Z,82.46
2017-11-26T07:00:11.282Z,82.48
2017-11-26T07:01:17.871Z,82.50
2017-11-26T07:02:24.541Z,82.47
2017-11-26T07:03:31.558Z,82.50
2017-11-26T07:04:38.374Z,82.54
2017-11-26T07:05:45.393Z,82.55
2017-11-26T07:06:52.325Z,82.56
2017-11-26T07:07:59.253Z,82.56
2017-11-26T07:09:06.263Z,82.59
2017-11-26T07:10:13.227Z,82.58
2017-11-26T07:11:20.199Z,82.66
2017-11-26T07:12:27.128Z,82.69
2017-11-26T07:13:33.986Z,82.71
2017-11-26T07:14:40.839Z,82.72
2017-11-26T07:15:47.774Z,82.75
2017-11-26T07:16:54.730Z,82.77
2017-11-26T07:18:01.590Z,82.78
2017-11-26T07:19:08.265Z,82.80
2017-11-26T07:20:15.106Z,82.80
2017-11-26T07:21:21.842Z,82.79
2017-11-26T07:22:28.869Z,82.78
2017-11-26T07:23:35.799Z,82.78
2017-11-26T07:24:42.569Z,82.78
2017-11-26T07:25:49.329Z,82.75
2017-11-26T07:26:56.488Z,82.76
2017-11-26T07:28:03.394Z,82.83
2017-11-26T07:29:10.282Z,82.85
2017-11-26T07:30:17.166Z,82.88
2017-11-26T07:31:24.012Z,82.86
2017-11-26T07:32:30.794Z,82.86
2017-11-26T07:33:37.810Z,82.87
2017-11-26T07:34:44.598Z,82.87
2017-11-26T07:35:51.405Z,82.87
2017-11-26T07:36:58.214Z,82.92
2017-11-26T07:38:05.102Z,82.91
2017-11-26T07:39:12.009Z,82.93
2017-11-26T07:40:18.823Z,82.93
2017-11-26T07:41:25.654Z,82.97
2017-11-26T07:42:32.427Z,82.96
2017-11-26T07:43:39.326Z,82.97
2017-11-26T07:44:46.083Z,83.00
2017-11-26T07:45:52.893Z,82.98
2017-11-26T07:46:59.703Z,82.99
2017-11-26T07:48:06.897Z,83.04
2017-11-26T07:49:13.075Z,83.04
2017-11-26T07:50:19.782Z,83.05
2017-11-26T07:51:26.594Z,83.08
2017-11-26T07:52:33.376Z,83.08
2017-11-26T07:53:40.282Z,83.07
2017-11-26T07:54:47.075Z,83.12
2017-11-26T07:55:54.050Z,83.12
2017-11-26T07:57:00.818Z,83.17
2017-11-26T07:58:07.794Z,83.20
2017-11-26T07:59:14.653Z,83.20
2017-11-26T08:00:21.518Z,83.21
2017-11-26T08:01:29.347Z,83.22
2017-11-26T08:02:35.195Z,83.25
2017-11-26T08:03:42.038Z,83.29
2017-11-26T08:04:48.871Z,83.31
2017-11-26T08:05:56.138Z,83.30
2017-11-26T08:07:02.333Z,83.30
2017-11-26T08:08:09.186Z,83.32
2017-11-26T08:09:16.046Z,83.35
2017-11-26T08:10:23.098Z,83.39
2017-11-26T08:11:29.907Z,83.42
2017-11-26T08:12:36.586Z,83.41
2017-11-26T08:13:43.483Z,83.40
2017-11-26T08:14:50.318Z,83.42
2017-11-26T08:15:57.106Z,83.42
2017-11-26T08:17:04.445Z,83.48
2017-11-26T08:18:10.674Z,83.48
2017-11-26T08:19:17.427Z,83.49
2017-11-26T08:20:24.286Z,83.53
2017-11-26T08:21:31.011Z,83.54
2017-11-26T08:22:37.840Z,83.54
2017-11-26T08:23:44.706Z,83.59
2017-11-26T08:24:51.543Z,83.62
2017-11-26T08:25:58.339Z,83.64
2017-11-26T08:27:05.126Z,83.64
2017-11-26T08:28:11.930Z,83.65
2017-11-26T08:29:18.658Z,83.72
2017-11-26T08:30:25.455Z,83.72
2017-11-26T08:31:32.281Z,83.74
2017-11-26T08:32:39.155Z,83.79
2017-11-26T08:33:46.071Z,83.76
2017-11-26T08:34:52.942Z,83.81
2017-11-26T08:35:59.659Z,83.81
2017-11-26T08:37:06.907Z,83.86
2017-11-26T08:38:13.892Z,83.88
2017-11-26T08:39:20.751Z,83.88
2017-11-26T08:40:27.666Z,83.85
2017-11-26T08:41:34.605Z,83.86
2017-11-26T08:42:41.495Z,83.89
2017-11-26T08:43:48.502Z,83.93
2017-11-26T08:44:55.282Z,83.96
2017-11-26T08:46:02.481Z,83.93
2017-11-26T08:47:09.009Z,83.92
2017-11-26T08:48:15.738Z,83.95
2017-11-26T08:49:22.297Z,83.99
2017-11-26T08:50:29.138Z,84.07
2017-11-26T08:51:35.890Z,84.12
2017-11-26T08:52:42.922Z,84.15
2017-11-26T08:53:49.793Z,84.20
2017-11-26T08:54:56.650Z,84.24
2017-11-26T08:56:03.479Z,84.31
2017-11-26T08:57:10.245Z,84.38
2017-11-26T08:58:17.022Z,84.37
2017-11-26T08:59:24.060Z,84.38
2017-11-26T09:00:31.018Z,84.44
2017-11-26T09:01:38.029Z,84.44
2017-11-26T09:02:44.877Z,84.46
2017-11-26T09:03:51.962Z,84.44
2017-11-26T09:04:58.957Z,84.47
2017-11-26T09:06:05.906Z,84.48
2017-11-26T09:07:13.078Z,84.49
2017-11-26T09:08:19.606Z,84.51
2017-11-26T09:09:26.577Z,84.47
2017-11-26T09:10:33.423Z,84.48
2017-11-26T09:11:40.390Z,84.53
2017-11-26T09:12:47.297Z,84.53
2017-11-26T09:13:54.233Z,84.53
2017-11-26T09:15:01.246Z,84.56
2017-11-26T09:16:08.207Z,84.55
2017-11-26T09:17:15.216Z,84.62
2017-11-26T09:18:22.247Z,84.67
2017-11-26T09:19:29.310Z,84.68
2017-11-26T09:20:36.370Z,84.73
2017-11-26T09:21:43.331Z,84.73
2017-11-26T09:22:50.665Z,84.71
2017-11-26T09:23:57.289Z,84.69
2017-11-26T09:25:04.494Z,84.67
2017-11-26T09:26:10.987Z,84.64
2017-11-26T09:27:17.975Z,84.67
2017-11-26T09:28:24.810Z,84.62
2017-11-26T09:29:31.955Z,84.62
2017-11-26T09:30:39.011Z,84.64
2017-11-26T09:31:45.832Z,84.65
2017-11-26T09:32:52.802Z,84.67
2017-11-26T09:33:59.897Z,84.69
2017-11-26T09:35:06.631Z,84.68
2017-11-26T09:36:13.277Z,84.60
2017-11-26T09:37:20.086Z,84.59
2017-11-26T09:38:26.870Z,84.50
2017-11-26T09:39:33.818Z,84.52
2017-11-26T09:40:40.817Z,84.53
2017-11-26T09:41:47.625Z,84.50
2017-11-26T09:42:54.375Z,84.53
2017-11-26T09:44:01.387Z,84.60
2017-11-26T09:45:08.394Z,84.59
2017-11-26T09:46:15.201Z,84.67
2017-11-26T09:47:22.060Z,84.66
2017-11-26T09:48:29.062Z,84.59
2017-11-26T09:49:36.146Z,84.54
2017-11-26T09:50:42.973Z,84.54
2017-11-26T09:51:49.747Z,84.55
2017-11-26T09:52:56.499Z,84.58
2017-11-26T09:54:03.533Z,84.62
2017-11-26T09:55:10.358Z,84.66
2017-11-26T09:56:17.209Z,84.68
2017-11-26T09:57:24.034Z,84.68
2017-11-26T09:58:30.925Z,84.69
2017-11-26T09:59:37.725Z,84.72
2017-11-26T10:00:44.554Z,84.67
2017-11-26T10:01:51.495Z,84.55
2017-11-26T10:02:58.297Z,84.53
2017-11-26T10:04:05.266Z,84.51
2017-11-26T10:05:12.001Z,84.46
2017-11-26T10:06:18.806Z,84.51
2017-11-26T10:07:25.790Z,84.54
2017-11-26T10:08:32.670Z,84.46
2017-11-26T10:09:39.574Z,84.39
2017-11-26T10:10:46.363Z,84.35
2017-11-26T10:11:53.121Z,84.36
2017-11-26T10:12:59.903Z,84.31
2017-11-26T10:14:06.774Z,84.32
2017-11-26T10:15:13.630Z,84.31
2017-11-26T10:16:20.521Z,84.29
2017-11-26T10:17:27.243Z,84.24
2017-11-26T10:18:34.074Z,84.24
2017-11-26T10:19:40.937Z,84.28
2017-11-26T10:20:47.955Z,84.30
2017-11-26T10:21:54.910Z,84.27
2017-11-26T10:23:01.827Z,84.21
2017-11-26T10:24:08.563Z,84.19
2017-11-26T10:25:15.257Z,84.20
2017-11-26T10:26:22.037Z,84.20
2017-11-26T10:27:28.939Z,84.26
2017-11-26T10:28:35.719Z,84.36
2017-11-26T10:29:42.763Z,84.40
2017-11-26T10:30:49.518Z,84.39
2017-11-26T10:31:56.374Z,84.36
2017-11-26T10:33:03.257Z,84.30
2017-11-26T10:34:10.412Z,84.35
2017-11-26T10:35:17.266Z,84.26
2017-11-26T10:36:24.150Z,84.20
2017-11-26T10:37:31.152Z,84.17
2017-11-26T10:38:37.903Z,84.17
2017-11-26T10:39:45.000Z,84.13
2017-11-26T10:40:51.822Z,84.20
2017-11-26T10:41:58.626Z,84.17
2017-11-26T10:43:05.485Z,84.01
2017-11-26T10:44:12.406Z,84.06
2017-11-26T10:45:19.331Z,83.91
2017-11-26T10:46:26.194Z,83.85
2017-11-26T10:47:33.352Z,83.83
2017-11-26T10:48:40.065Z,83.85
2017-11-26T10:49:47.079Z,83.81
2017-11-26T10:50:54.094Z,83.72
2017-11-26T10:52:01.110Z,83.65
2017-11-26T10:53:07.869Z,83.68
2017-11-26T10:54:14.619Z,83.63
2017-11-26T10:55:21.821Z,83.57
2017-11-26T10:56:28.430Z,83.55
2017-11-26T10:57:35.226Z,83.53
2017-11-26T10:58:42.231Z,83.50
2017-11-26T10:59:49.039Z,83.42
2017-11-26T11:00:56.175Z,83.37
2017-11-26T11:02:03.167Z,83.30
2017-11-26T11:03:10.057Z,83.22
2017-11-26T11:04:16.946Z,83.14
2017-11-26T11:05:23.816Z,82.99
2017-11-26T11:06:30.795Z,83.00
2017-11-26T11:07:37.774Z,82.99
2017-11-26T11:08:44.517Z,82.89
2017-11-26T11:09:51.489Z,82.88
2017-11-26T11:10:58.371Z,82.81
2017-11-26T11:12:05.309Z,82.76
2017-11-26T11:13:12.231Z,82.74
2017-11-26T11:14:19.274Z,82.72
2017-11-26T11:15:26.187Z,82.57
2017-11-26T11:16:33.100Z,82.54
2017-11-26T11:17:40.229Z,82.55
2017-11-26T11:18:47.070Z,82.60
2017-11-26T11:19:54.129Z,82.45
2017-11-26T11:21:00.991Z,82.48
2017-11-26T11:22:07.845Z,82.41
2017-11-26T11:23:14.720Z,82.23
2017-11-26T11:24:21.571Z,82.23
2017-11-26T11:25:28.562Z,82.19
2017-11-26T11:26:35.414Z,82.11
2017-11-26T11:27:42.298Z,82.01
2017-11-26T11:28:49.025Z,82.06
2017-11-26T11:29:55.819Z,81.90
2017-11-26T11:31:02.573Z,81.85
2017-11-26T11:32:09.307Z,81.81
2017-11-26T11:33:16.192Z,81.76
2017-11-26T11:34:23.012Z,81.67
2017-11-26T11:35:29.832Z,81.59
2017-11-26T11:36:36.694Z,81.65
2017-11-26T11:37:43.591Z,81.45
2017-11-26T11:38:50.392Z,81.38
2017-11-26T11:39:57.226Z,81.39
2017-11-26T11:41:04.036Z,81.29
2017-11-26T11:42:10.902Z,81.17
2017-11-26T11:43:17.786Z,81.16
2017-11-26T11:44:24.880Z,81.06
2017-11-26T11:45:31.757Z,81.08
2017-11-26T11:46:38.693Z,81.01
2017-11-26T11:47:45.502Z,80.96
2017-11-26T11:48:52.388Z,81.04
2017-11-26T11:49:59.443Z,80.88
2017-11-26T11:51:06.330Z,80.69
2017-11-26T11:52:13.178Z,80.63
2017-11-26T11:53:20.154Z,80.68
2017-11-26T11:54:27.238Z,80.69
2017-11-26T11:55:34.239Z,80.52
2017-11-26T11:56:41.150Z,80.42
2017-11-26T11:57:48.119Z,80.32
2017-11-26T11:58:55.178Z,80.32
2017-11-26T12:00:02.142Z,80.19
2017-11-26T12:01:09.149Z,80.15
2017-11-26T12:02:16.112Z,80.14
2017-11-26T12:03:23.120Z,80.06
2017-11-26T12:04:30.160Z,79.90
2017-11-26T12:05:36.931Z,79.94
2017-11-26T12:06:43.981Z,79.87
2017-11-26T12:07:50.826Z,79.82
2017-11-26T12:08:57.770Z,79.78
2017-11-26T12:10:04.682Z,79.66
2017-11-26T12:11:11.563Z,79.66
2017-11-26T12:12:18.334Z,79.56
2017-11-26T12:13:25.050Z,79.55
2017-11-26T12:14:31.886Z,79.64
2017-11-26T12:15:38.897Z,79.50
2017-11-26T12:16:45.819Z,79.57
2017-11-26T12:17:52.643Z,79.36
2017-11-26T12:18:59.430Z,79.26
2017-11-26T12:20:06.515Z,79.08
2017-11-26T12:21:13.582Z,79.09
2017-11-26T12:22:20.495Z,79.04
2017-11-26T12:23:27.447Z,78.89
2017-11-26T12:24:34.366Z,78.90
2017-11-26T12:25:41.214Z,78.82
2017-11-26T12:26:48.115Z,78.76
2017-11-26T12:27:55.110Z,78.68
2017-11-26T12:29:02.082Z,78.58
2017-11-26T12:30:09.064Z,78.55
2017-11-26T12:31:16.094Z,78.54
2017-11-26T12:32:23.091Z,78.50
2017-11-26T12:33:30.129Z,78.51
2017-11-26T12:34:37.065Z,78.41
2017-11-26T12:35:44.110Z,78.35
2017-11-26T12:36:51.177Z,78.33
2017-11-26T12:37:57.939Z,78.32
2017-11-26T12:39:05.095Z,78.27
2017-11-26T12:40:11.921Z,78.17
2017-11-26T12:41:18.851Z,78.21
2017-11-26T12:42:25.651Z,78.14
2017-11-26T12:43:32.745Z,78.11
2017-11-26T12:44:39.599Z,78.04
2017-11-26T12:45:46.573Z,78.00
2017-11-26T12:46:53.450Z,78.06
2017-11-26T12:48:00.307Z,77.94
2017-11-26T12:49:07.233Z,77.95
2017-11-26T12:50:14.014Z,77.91
2017-11-26T12:51:20.826Z,77.86
2017-11-26T12:52:27.777Z,77.88
2017-11-26T12:53:35.103Z,77.87
2017-11-26T12:54:41.622Z,77.81
2017-11-26T12:55:48.722Z,77.88
2017-11-26T12:56:55.721Z,77.80
2017-11-26T12:58:02.565Z,77.78
2017-11-26T12:59:09.656Z,77.71
2017-11-26T13:00:16.427Z,77.69
2017-11-26T13:01:24.738Z,77.65
2017-11-26T13:02:30.210Z,77.60
2017-11-26T13:03:37.190Z,77.58
2017-11-26T13:04:44.222Z,77.53
2017-11-26T13:05:51.071Z,77.48
2017-11-26T13:06:58.207Z,77.48
2017-11-26T13:08:05.279Z,77.49
2017-11-26T13:09:12.246Z,77.43
2017-11-26T13:10:19.134Z,77.42
2017-11-26T13:11:26.258Z,77.39
2017-11-26T13:12:33.134Z,77.46
2017-11-26T13:13:40.229Z,77.52
2017-11-26T13:14:47.381Z,77.42
2017-11-26T13:15:54.418Z,77.32
2017-11-26T13:17:01.227Z,77.41
2017-11-26T13:18:08.130Z,77.39
2017-11-26T13:19:15.110Z,77.35
2017-11-26T13:20:21.902Z,77.40
2017-11-26T13:21:28.798Z,77.32
2017-11-26T13:22:35.804Z,77.36
2017-11-26T13:23:42.733Z,77.32
2017-11-26T13:24:49.657Z,77.30
2017-11-26T13:25:56.611Z,77.24
2017-11-26T13:27:03.479Z,77.21
2017-11-26T13:28:10.563Z,77.14
2017-11-26T13:29:17.486Z,77.21
2017-11-26T13:30:24.610Z,77.29
2017-11-26T13:31:31.718Z,77.21
2017-11-26T13:32:38.689Z,77.25
2017-11-26T13:33:45.657Z,77.28
2017-11-26T13:34:52.659Z,77.28
2017-11-26T13:35:59.830Z,77.21
2017-11-26T13:37:06.922Z,77.23
2017-11-26T13:38:13.946Z,77.27
2017-11-26T13:39:20.893Z,77.24
2017-11-26T13:40:28.072Z,77.14
2017-11-26T13:41:34.608Z,77.18
2017-11-26T13:42:41.615Z,77.14
2017-11-26T13:43:48.574Z,77.10
2017-11-26T13:44:55.775Z,77.15
2017-11-26T13:46:02.725Z,77.15
2017-11-26T13:47:09.709Z,77.18
2017-11-26T13:48:16.649Z,77.18
2017-11-26T13:49:23.634Z,77.14
2017-11-26T13:50:30.566Z,77.21
2017-11-26T13:51:37.611Z,77.18
2017-11-26T13:52:44.698Z,77.15
2017-11-26T13:53:51.727Z,77.12
2017-11-26T13:54:58.551Z,77.07
2017-11-26T13:56:07.619Z,77.04
2017-11-26T13:57:12.694Z,77.02
2017-11-26T13:58:19.577Z,77.03
2017-11-26T13:59:26.353Z,77.07
2017-11-26T14:00:33.306Z,77.02
2017-11-26T14:01:40.513Z,76.95
2017-11-26T14:02:47.113Z,76.92
2017-11-26T14:03:54.210Z,76.94
2017-11-26T14:05:01.066Z,76.93
2017-11-26T14:06:08.009Z,76.88
2017-11-26T14:07:15.046Z,76.83
2017-11-26T14:08:21.993Z,76.78
2017-11-26T14:09:29.022Z,76.79
2017-11-26T14:10:36.073Z,76.76
2017-11-26T14:11:43.038Z,76.79
2017-11-26T14:12:49.814Z,76.72
2017-11-26T14:13:56.797Z,76.75
2017-11-26T14:15:03.795Z,76.73
2017-11-26T14:16:10.642Z,76.67
2017-11-26T14:17:17.517Z,76.71
2017-11-26T14:18:24.509Z,76.72
2017-11-26T14:19:31.486Z,76.72
2017-11-26T14:20:38.335Z,76.68
2017-11-26T14:21:45.246Z,76.66